• Join FlightAware (Why Join?)
  • Login
  • US Flag 
05:25PM EDT


 

Airport Tracker/Info


-or-


 

Live Flight TrackerFlight Track Log ✈ N325P ✈ 14-Nov-2013 ✈ SC6 - KSBA

Flight Track Log - Related Links

Times and Time Zones

All times are in EST time to prevent confusion due to time zone crossing. See the N325P flight status page for this flight to view local times or setup timezone preferences in your user account.

Time Position Orientation Groundspeed Altitude Reporting Facility
EST Latitude Longitude Course Direction KTS MPH feet Rate Location/Type
07:49PM 34.0167 -118.6000 119° Southeast 131 151 3,500  Level Southern California TRACON
07:50PM 34.0333 -118.6333 301° West 130 150 4,500 540 Climbing Southern California TRACON
07:51PM 34.0500 -118.6833 292° West 163 188 4,600  Climbing Southern California TRACON
07:52PM 34.0667 -118.7333 292° West 156 180 4,500 -60 Descending Southern California TRACON
07:53PM 34.0833 -118.7833 292° West 152 175 4,500  Level Southern California TRACON
07:54PM 34.1000 -118.8333 292° West 151 174 4,600 60 Climbing Southern California TRACON
07:55PM -19.9150 -160.1620 119° Southeast  Level FlightAware Approximate
07:55PM 34.1017 -118.8578 275° West 153 176 4,600  Level Los Angeles Center
07:56PM 34.1181 -118.9019 294° West 156 180 4,600  Level Los Angeles Center
07:57PM 34.1361 -118.9533 293° West 163 188 4,600 -60 Level Los Angeles Center
07:58PM 34.1531 -119.0100 290° West 162 186 4,500 -60 Descending Los Angeles Center
07:59PM 34.1706 -119.0592 293° West 165 190 4,500  Level Los Angeles Center
08:00PM 34.1881 -119.1081 293° West 166 191 4,500  Level Los Angeles Center
08:01PM 34.2039 -119.1600 290° West 170 196 4,500  Level Los Angeles Center
08:02PM 34.2264 -119.2128 297° West 170 196 4,500  Level Los Angeles Center
08:03PM 34.2481 -119.2706 294° West 168 193 4,500  Level Los Angeles Center
08:04PM 34.2597 -119.3033 293° West 168 193 4,500  Level Los Angeles Center
08:05PM 34.2744 -119.3583 288° West 169 194 4,500  Level Los Angeles Center
08:06PM 34.2886 -119.4111 288° West 169 194 4,500 -180 Level Los Angeles Center
08:06PM 34.3031 -119.4661 288° West 173 199 4,200 -420 Descending Los Angeles Center
08:07PM 34.3222 -119.5225 292° West 185 213 3,800 -540 Descending Los Angeles Center
08:09PM 34.3417 -119.5892 289° West 189 217 3,100 -600 Descending Los Angeles Center
08:10PM 34.3564 -119.6547 285° West 190 219 2,600 -600 Descending Los Angeles Center
08:10PM 34.3664 -119.7089 283° West 189 217 2,000 -840 Descending Los Angeles Center
08:11PM 34.3842 -119.7603 293° West 175 201 1,100 -660 Descending Los Angeles Center
08:13PM 34.4178 -119.7939 320° Northwest 149 171 700 -480 Descending Los Angeles Center
08:14PM 34.4283 -119.8322 288° West 118 136 200 -540 Descending Los Angeles Center
08:15PM 34.4262 -119.8415 254° West  Level Estimated
08:22PM 34.4262 -119.8415 North  Level Estimated
08:23PM 34.4262 -119.8415 North  Level Estimated
08:24PM 34.4262 -119.8415 North  Level Estimated
08:25PM 34.4262 -119.8415 North  Level Estimated
08:26PM 34.4262 -119.8415 North  Level Estimated
08:27PM 34.4262 -119.8415 North  Level Estimated
08:28PM 34.4262 -119.8415 North  Level Estimated
08:29PM 34.4262 -119.8415 North  Level Estimated
08:30PM 34.4262 -119.8415 North  Level Estimated
08:31PM 34.4262 -119.8415 North  Level Estimated
08:32PM 34.4262 -119.8415 North  Level Estimated